sensor_id;sensor_type;location;lat;lon;timestamp;pressure;altitude;pressure_sealevel;temperature;humidity
16690;BME280;8458;52.220;9.884;2023-03-15T00:01:12;100099.53;;;2.60;77.14
16690;BME280;8458;52.220;9.884;2023-03-15T00:03:41;100098.88;;;2.58;77.27
16690;BME280;8458;52.220;9.884;2023-03-15T00:06:08;100102.03;;;2.62;77.45
16690;BME280;8458;52.220;9.884;2023-03-15T00:08:34;100105.44;;;2.57;77.88
16690;BME280;8458;52.220;9.884;2023-03-15T00:11:01;100104.22;;;2.53;77.85
16690;BME280;8458;52.220;9.884;2023-03-15T00:13:28;100107.31;;;2.57;77.81
16690;BME280;8458;52.220;9.884;2023-03-15T00:15:56;100111.28;;;2.42;78.06
16690;BME280;8458;52.220;9.884;2023-03-15T00:18:23;100116.50;;;2.44;78.58
16690;BME280;8458;52.220;9.884;2023-03-15T00:20:51;100131.47;;;2.41;78.79
16690;BME280;8458;52.220;9.884;2023-03-15T00:23:18;100132.59;;;2.33;79.57
16690;BME280;8458;52.220;9.884;2023-03-15T00:25:45;100126.38;;;2.26;79.53
16690;BME280;8458;52.220;9.884;2023-03-15T00:28:12;100132.28;;;2.23;80.04
16690;BME280;8458;52.220;9.884;2023-03-15T00:30:39;100131.84;;;2.26;79.53
16690;BME280;8458;52.220;9.884;2023-03-15T00:33:06;100139.03;;;2.21;79.70
16690;BME280;8458;52.220;9.884;2023-03-15T00:35:37;100137.84;;;2.10;79.73
16690;BME280;8458;52.220;9.884;2023-03-15T00:38:05;100143.47;;;2.15;79.88
16690;BME280;8458;52.220;9.884;2023-03-15T00:40:31;100146.66;;;2.12;79.53
16690;BME280;8458;52.220;9.884;2023-03-15T00:42:58;100149.00;;;2.08;80.09
16690;BME280;8458;52.220;9.884;2023-03-15T00:45:24;100151.97;;;2.07;80.40
16690;BME280;8458;52.220;9.884;2023-03-15T00:47:52;100152.56;;;2.09;80.34
16690;BME280;8458;52.220;9.884;2023-03-15T00:50:20;100158.03;;;2.09;80.32
16690;BME280;8458;52.220;9.884;2023-03-15T00:52:47;100158.94;;;2.03;81.00
16690;BME280;8458;52.220;9.884;2023-03-15T00:55:17;100159.81;;;1.96;80.57
16690;BME280;8458;52.220;9.884;2023-03-15T00:57:45;100154.69;;;2.07;80.54
16690;BME280;8458;52.220;9.884;2023-03-15T01:00:14;100161.22;;;2.06;79.86
16690;BME280;8458;52.220;9.884;2023-03-15T01:02:41;100159.28;;;2.13;80.20
16690;BME280;8458;52.220;9.884;2023-03-15T01:05:08;100161.56;;;2.16;80.02
16690;BME280;8458;52.220;9.884;2023-03-15T01:07:34;100168.09;;;2.15;79.92
16690;BME280;8458;52.220;9.884;2023-03-15T01:10:04;100159.44;;;2.18;79.74
16690;BME280;8458;52.220;9.884;2023-03-15T01:12:32;100158.41;;;2.19;79.58
16690;BME280;8458;52.220;9.884;2023-03-15T01:14:59;100162.81;;;2.20;79.51
16690;BME280;8458;52.220;9.884;2023-03-15T01:17:26;100155.44;;;2.21;79.24
16690;BME280;8458;52.220;9.884;2023-03-15T01:19:52;100157.94;;;2.22;79.30
16690;BME280;8458;52.220;9.884;2023-03-15T01:22:20;100159.63;;;2.23;79.75
16690;BME280;8458;52.220;9.884;2023-03-15T01:24:47;100162.75;;;2.27;79.40
16690;BME280;8458;52.220;9.884;2023-03-15T01:27:13;100163.44;;;2.22;79.36
16690;BME280;8458;52.220;9.884;2023-03-15T01:29:41;100168.00;;;2.28;79.12
16690;BME280;8458;52.220;9.884;2023-03-15T01:32:08;100161.53;;;2.23;79.20
16690;BME280;8458;52.220;9.884;2023-03-15T01:34:35;100156.69;;;2.25;78.82
16690;BME280;8458;52.220;9.884;2023-03-15T01:37:01;100152.38;;;2.36;78.74
16690;BME280;8458;52.220;9.884;2023-03-15T01:39:28;100166.72;;;2.31;78.30
16690;BME280;8458;52.220;9.884;2023-03-15T01:41:55;100158.47;;;2.38;78.10
16690;BME280;8458;52.220;9.884;2023-03-15T01:44:23;100162.09;;;2.31;78.33
16690;BME280;8458;52.220;9.884;2023-03-15T01:46:51;100165.28;;;2.28;78.13
16690;BME280;8458;52.220;9.884;2023-03-15T01:49:19;100173.03;;;2.31;77.98
16690;BME280;8458;52.220;9.884;2023-03-15T01:51:49;100173.81;;;2.39;77.74
16690;BME280;8458;52.220;9.884;2023-03-15T01:54:20;100170.47;;;2.37;78.09
16690;BME280;8458;52.220;9.884;2023-03-15T01:56:50;100174.28;;;2.36;78.68
16690;BME280;8458;52.220;9.884;2023-03-15T01:59:23;100173.38;;;2.42;78.49
16690;BME280;8458;52.220;9.884;2023-03-15T02:01:53;100161.03;;;2.32;78.04
16690;BME280;8458;52.220;9.884;2023-03-15T02:04:24;100176.81;;;2.30;78.19
16690;BME280;8458;52.220;9.884;2023-03-15T02:06:55;100173.81;;;2.39;78.12
16690;BME280;8458;52.220;9.884;2023-03-15T02:09:27;100179.34;;;2.32;78.42
16690;BME280;8458;52.220;9.884;2023-03-15T02:11:56;100168.81;;;2.36;78.28
16690;BME280;8458;52.220;9.884;2023-03-15T02:14:23;100177.16;;;2.41;78.09
16690;BME280;8458;52.220;9.884;2023-03-15T02:16:50;100177.41;;;2.39;77.84
16690;BME280;8458;52.220;9.884;2023-03-15T02:19:28;100175.03;;;2.43;77.55
16690;BME280;8458;52.220;9.884;2023-03-15T02:22:00;100180.34;;;2.38;77.43
16690;BME280;8458;52.220;9.884;2023-03-15T02:24:38;100177.16;;;2.41;77.71
16690;BME280;8458;52.220;9.884;2023-03-15T02:27:10;100179.22;;;2.45;77.44
16690;BME280;8458;52.220;9.884;2023-03-15T02:29:38;100184.72;;;2.45;77.27
16690;BME280;8458;52.220;9.884;2023-03-15T02:32:06;100183.25;;;2.43;76.90
16690;BME280;8458;52.220;9.884;2023-03-15T02:34:33;100185.97;;;2.43;77.03
16690;BME280;8458;52.220;9.884;2023-03-15T02:36:59;100187.06;;;2.42;76.76
16690;BME280;8458;52.220;9.884;2023-03-15T02:39:26;100196.53;;;2.39;77.15
16690;BME280;8458;52.220;9.884;2023-03-15T02:41:54;100192.97;;;2.39;77.60
16690;BME280;8458;52.220;9.884;2023-03-15T02:44:26;100198.16;;;2.47;77.07
16690;BME280;8458;52.220;9.884;2023-03-15T02:46:59;100196.25;;;2.47;77.36
16690;BME280;8458;52.220;9.884;2023-03-15T02:49:30;100207.00;;;2.49;77.24
16690;BME280;8458;52.220;9.884;2023-03-15T02:51:57;100208.22;;;2.53;77.12
16690;BME280;8458;52.220;9.884;2023-03-15T02:54:24;100207.19;;;2.54;77.26
16690;BME280;8458;52.220;9.884;2023-03-15T02:56:50;100207.56;;;2.58;77.29
16690;BME280;8458;52.220;9.884;2023-03-15T02:59:17;100213.25;;;2.56;77.66
16690;BME280;8458;52.220;9.884;2023-03-15T03:01:44;100217.50;;;2.52;78.17
16690;BME280;8458;52.220;9.884;2023-03-15T03:04:12;100218.78;;;2.49;78.47
16690;BME280;8458;52.220;9.884;2023-03-15T03:06:38;100228.06;;;2.48;78.66
16690;BME280;8458;52.220;9.884;2023-03-15T03:09:08;100232.69;;;2.48;78.89
16690;BME280;8458;52.220;9.884;2023-03-15T03:11:34;100228.44;;;2.52;79.10
16690;BME280;8458;52.220;9.884;2023-03-15T03:14:01;100236.03;;;2.50;79.48
16690;BME280;8458;52.220;9.884;2023-03-15T03:16:27;100239.81;;;2.49;79.52
16690;BME280;8458;52.220;9.884;2023-03-15T03:18:54;100242.34;;;2.50;80.32
16690;BME280;8458;52.220;9.884;2023-03-15T03:21:22;100250.16;;;2.47;80.60
16690;BME280;8458;52.220;9.884;2023-03-15T03:23:48;100244.25;;;2.50;80.61
16690;BME280;8458;52.220;9.884;2023-03-15T03:26:17;100261.34;;;2.45;81.61
16690;BME280;8458;52.220;9.884;2023-03-15T03:28:45;100262.84;;;2.41;82.55
16690;BME280;8458;52.220;9.884;2023-03-15T03:31:16;100272.28;;;2.45;83.32
16690;BME280;8458;52.220;9.884;2023-03-15T03:33:43;100273.75;;;2.48;83.71
16690;BME280;8458;52.220;9.884;2023-03-15T03:36:09;100277.81;;;2.39;84.36
16690;BME280;8458;52.220;9.884;2023-03-15T03:38:39;100277.38;;;2.42;84.70
16690;BME280;8458;52.220;9.884;2023-03-15T03:41:05;100281.78;;;2.43;85.08
16690;BME280;8458;52.220;9.884;2023-03-15T03:43:32;100293.78;;;2.42;85.80
16690;BME280;8458;52.220;9.884;2023-03-15T03:45:58;100295.91;;;2.40;86.24
16690;BME280;8458;52.220;9.884;2023-03-15T03:48:25;100290.84;;;2.43;86.32
16690;BME280;8458;52.220;9.884;2023-03-15T03:50:52;100300.16;;;2.36;86.94
16690;BME280;8458;52.220;9.884;2023-03-15T03:53:18;100295.56;;;2.29;87.40
16690;BME280;8458;52.220;9.884;2023-03-15T03:55:46;100296.88;;;2.20;88.07
16690;BME280;8458;52.220;9.884;2023-03-15T03:58:12;100303.13;;;2.27;88.44
16690;BME280;8458;52.220;9.884;2023-03-15T04:00:39;100309.84;;;2.31;88.08
16690;BME280;8458;52.220;9.884;2023-03-15T04:03:06;100305.25;;;2.25;88.95
16690;BME280;8458;52.220;9.884;2023-03-15T04:05:33;100307.38;;;2.17;89.08
16690;BME280;8458;52.220;9.884;2023-03-15T04:07:59;100312.06;;;2.09;89.94
16690;BME280;8458;52.220;9.884;2023-03-15T04:10:26;100319.22;;;2.10;90.53
16690;BME280;8458;52.220;9.884;2023-03-15T04:12:54;100322.38;;;2.14;90.52
16690;BME280;8458;52.220;9.884;2023-03-15T04:15:22;100324.66;;;2.17;90.45
16690;BME280;8458;52.220;9.884;2023-03-15T04:17:49;100329.94;;;2.12;91.21
16690;BME280;8458;52.220;9.884;2023-03-15T04:20:20;100328.06;;;2.12;90.90
16690;BME280;8458;52.220;9.884;2023-03-15T04:22:47;100338.34;;;2.17;91.20
16690;BME280;8458;52.220;9.884;2023-03-15T04:25:13;100340.88;;;2.19;91.15
16690;BME280;8458;52.220;9.884;2023-03-15T04:27:40;100347.81;;;2.14;91.37
16690;BME280;8458;52.220;9.884;2023-03-15T04:30:09;100355.84;;;2.09;91.80
16690;BME280;8458;52.220;9.884;2023-03-15T04:32:36;100363.00;;;2.04;92.77
16690;BME280;8458;52.220;9.884;2023-03-15T04:35:04;100370.59;;;1.95;93.78
16690;BME280;8458;52.220;9.884;2023-03-15T04:37:30;100366.00;;;1.95;94.25
16690;BME280;8458;52.220;9.884;2023-03-15T04:39:57;100376.06;;;2.02;94.48
16690;BME280;8458;52.220;9.884;2023-03-15T04:42:23;100370.59;;;2.02;94.78
16690;BME280;8458;52.220;9.884;2023-03-15T04:44:51;100377.28;;;2.06;95.10
16690;BME280;8458;52.220;9.884;2023-03-15T04:47:19;100374.78;;;2.11;94.36
16690;BME280;8458;52.220;9.884;2023-03-15T04:49:46;100378.78;;;2.08;94.73
16690;BME280;8458;52.220;9.884;2023-03-15T04:52:13;100376.44;;;2.12;94.40
16690;BME280;8458;52.220;9.884;2023-03-15T04:54:39;100374.13;;;2.09;94.36
16690;BME280;8458;52.220;9.884;2023-03-15T04:57:06;100378.78;;;2.08;94.56
16690;BME280;8458;52.220;9.884;2023-03-15T04:59:32;100379.81;;;2.07;94.97
16690;BME280;8458;52.220;9.884;2023-03-15T05:01:59;100383.19;;;2.09;94.38
16690;BME280;8458;52.220;9.884;2023-03-15T05:04:27;100387.38;;;2.12;94.55
16690;BME280;8458;52.220;9.884;2023-03-15T05:06:53;100387.84;;;2.02;94.78
16690;BME280;8458;52.220;9.884;2023-03-15T05:09:20;100395.16;;;2.15;94.39
16690;BME280;8458;52.220;9.884;2023-03-15T05:11:46;100396.22;;;2.07;94.66
16690;BME280;8458;52.220;9.884;2023-03-15T05:14:12;100407.59;;;2.04;94.69
16690;BME280;8458;52.220;9.884;2023-03-15T05:16:39;100407.19;;;2.01;95.32
16690;BME280;8458;52.220;9.884;2023-03-15T05:19:07;100420.66;;;2.02;95.20
16690;BME280;8458;52.220;9.884;2023-03-15T05:21:35;100422.97;;;2.05;96.12
16690;BME280;8458;52.220;9.884;2023-03-15T05:24:02;100421.72;;;1.94;97.81
16690;BME280;8458;52.220;9.884;2023-03-15T05:26:28;100425.94;;;1.90;99.46
16690;BME280;8458;52.220;9.884;2023-03-15T05:28:55;100430.38;;;1.91;100.00
16690;BME280;8458;52.220;9.884;2023-03-15T05:31:21;100434.16;;;1.90;100.00
16690;BME280;8458;52.220;9.884;2023-03-15T05:33:47;100430.78;;;1.88;100.00
16690;BME280;8458;52.220;9.884;2023-03-15T05:36:14;100432.47;;;1.89;100.00
16690;BME280;8458;52.220;9.884;2023-03-15T05:38:43;100436.03;;;1.96;100.00
16690;BME280;8458;52.220;9.884;2023-03-15T05:41:10;100442.13;;;1.99;100.00
16690;BME280;8458;52.220;9.884;2023-03-15T05:43:41;100456.84;;;2.04;99.59
16690;BME280;8458;52.220;9.884;2023-03-15T05:46:08;100450.97;;;2.01;99.36
16690;BME280;8458;52.220;9.884;2023-03-15T05:48:35;100461.03;;;2.07;99.28
16690;BME280;8458;52.220;9.884;2023-03-15T05:51:02;100461.47;;;2.04;98.73
16690;BME280;8458;52.220;9.884;2023-03-15T05:53:28;100473.25;;;2.11;98.71
16690;BME280;8458;52.220;9.884;2023-03-15T05:55:56;100482.50;;;2.10;98.42
16690;BME280;8458;52.220;9.884;2023-03-15T05:58:23;100477.66;;;2.12;98.38
16690;BME280;8458;52.220;9.884;2023-03-15T06:00:49;100479.56;;;2.11;98.88
16690;BME280;8458;52.220;9.884;2023-03-15T06:03:16;100474.06;;;2.18;98.29
16690;BME280;8458;52.220;9.884;2023-03-15T06:05:42;100485.44;;;2.22;97.09
16690;BME280;8458;52.220;9.884;2023-03-15T06:08:09;100492.38;;;2.18;97.27
16690;BME280;8458;52.220;9.884;2023-03-15T06:10:35;100500.16;;;2.21;97.35
16690;BME280;8458;52.220;9.884;2023-03-15T06:13:03;100502.88;;;2.21;96.73
16690;BME280;8458;52.220;9.884;2023-03-15T06:15:29;100506.03;;;2.24;96.41
16690;BME280;8458;52.220;9.884;2023-03-15T06:17:56;100510.88;;;2.22;96.39
16690;BME280;8458;52.220;9.884;2023-03-15T06:20:22;100511.50;;;2.24;96.23
16690;BME280;8458;52.220;9.884;2023-03-15T06:22:49;100520.34;;;2.20;96.59
16690;BME280;8458;52.220;9.884;2023-03-15T06:25:15;100522.03;;;2.21;96.37
16690;BME280;8458;52.220;9.884;2023-03-15T06:27:42;100530.44;;;2.32;96.20
16690;BME280;8458;52.220;9.884;2023-03-15T06:30:10;100528.75;;;2.31;95.27
16690;BME280;8458;52.220;9.884;2023-03-15T06:32:37;100531.31;;;2.26;95.61
16690;BME280;8458;52.220;9.884;2023-03-15T06:35:04;100539.31;;;2.28;95.87
16690;BME280;8458;52.220;9.884;2023-03-15T06:37:31;100543.47;;;2.30;95.79
16690;BME280;8458;52.220;9.884;2023-03-15T06:40:00;100548.75;;;2.25;95.74
16690;BME280;8458;52.220;9.884;2023-03-15T06:42:28;100540.56;;;2.25;95.97
16690;BME280;8458;52.220;9.884;2023-03-15T06:44:54;100549.38;;;2.27;95.72
16690;BME280;8458;52.220;9.884;2023-03-15T06:47:22;100557.81;;;2.32;96.08
16690;BME280;8458;52.220;9.884;2023-03-15T06:49:49;100564.34;;;2.31;95.55
16690;BME280;8458;52.220;9.884;2023-03-15T06:52:16;100570.84;;;2.30;95.63
16690;BME280;8458;52.220;9.884;2023-03-15T06:54:42;100572.53;;;2.31;95.71
16690;BME280;8458;52.220;9.884;2023-03-15T06:57:09;100565.78;;;2.41;95.54
16690;BME280;8458;52.220;9.884;2023-03-15T06:59:35;100573.78;;;2.42;95.58
16690;BME280;8458;52.220;9.884;2023-03-15T07:02:02;100574.19;;;2.46;96.17
16690;BME280;8458;52.220;9.884;2023-03-15T07:04:30;100582.63;;;2.44;96.54
16690;BME280;8458;52.220;9.884;2023-03-15T07:06:56;100581.56;;;2.59;95.80
16690;BME280;8458;52.220;9.884;2023-03-15T07:09:23;100586.81;;;2.60;94.97
16690;BME280;8458;52.220;9.884;2023-03-15T07:11:49;100594.16;;;2.60;94.39
16690;BME280;8458;52.220;9.884;2023-03-15T07:14:15;100595.22;;;2.59;94.48
16690;BME280;8458;52.220;9.884;2023-03-15T07:16:42;100613.31;;;2.66;94.07
16690;BME280;8458;52.220;9.884;2023-03-15T07:19:08;100604.00;;;2.74;93.20
16690;BME280;8458;52.220;9.884;2023-03-15T07:21:36;100608.03;;;2.72;93.15
16690;BME280;8458;52.220;9.884;2023-03-15T07:24:03;100611.78;;;2.77;93.57
16690;BME280;8458;52.220;9.884;2023-03-15T07:26:30;100623.19;;;2.81;93.61
16690;BME280;8458;52.220;9.884;2023-03-15T07:28:56;100624.84;;;2.89;94.06
16690;BME280;8458;52.220;9.884;2023-03-15T07:31:23;100635.81;;;2.82;93.58
16690;BME280;8458;52.220;9.884;2023-03-15T07:33:49;100630.53;;;2.87;93.18
16690;BME280;8458;52.220;9.884;2023-03-15T07:36:16;100633.47;;;2.92;93.65
16690;BME280;8458;52.220;9.884;2023-03-15T07:38:43;100636.00;;;2.94;92.59
16690;BME280;8458;52.220;9.884;2023-03-15T07:41:10;100641.69;;;2.92;91.50
16690;BME280;8458;52.220;9.884;2023-03-15T07:43:36;100650.09;;;2.97;92.02
16690;BME280;8458;52.220;9.884;2023-03-15T07:46:03;100649.03;;;2.98;91.75
16690;BME280;8458;52.220;9.884;2023-03-15T07:48:31;100660.84;;;2.92;91.69
16690;BME280;8458;52.220;9.884;2023-03-15T07:50:57;100663.59;;;2.92;91.89
16690;BME280;8458;52.220;9.884;2023-03-15T07:53:24;100664.88;;;2.96;91.99
16690;BME280;8458;52.220;9.884;2023-03-15T07:55:52;100665.91;;;2.95;91.24
16690;BME280;8458;52.220;9.884;2023-03-15T07:58:19;100666.75;;;3.02;91.02
16690;BME280;8458;52.220;9.884;2023-03-15T08:00:45;100669.88;;;3.06;90.94
16690;BME280;8458;52.220;9.884;2023-03-15T08:03:11;100662.72;;;3.12;92.47
16690;BME280;8458;52.220;9.884;2023-03-15T08:05:38;100665.38;;;3.25;92.23
16690;BME280;8458;52.220;9.884;2023-03-15T08:08:05;100667.91;;;3.27;91.53
16690;BME280;8458;52.220;9.884;2023-03-15T08:10:31;100667.91;;;3.33;91.09
16690;BME280;8458;52.220;9.884;2023-03-15T08:12:59;100664.94;;;3.35;88.93
16690;BME280;8458;52.220;9.884;2023-03-15T08:15:26;100682.00;;;3.37;87.85
16690;BME280;8458;52.220;9.884;2023-03-15T08:17:52;100679.28;;;3.30;87.40
16690;BME280;8458;52.220;9.884;2023-03-15T08:20:19;100682.66;;;3.32;87.23
16690;BME280;8458;52.220;9.884;2023-03-15T08:22:46;100685.97;;;3.48;87.65
16690;BME280;8458;52.220;9.884;2023-03-15T08:25:15;100683.81;;;3.56;87.21
16690;BME280;8458;52.220;9.884;2023-03-15T08:27:42;100687.56;;;3.62;85.89
16690;BME280;8458;52.220;9.884;2023-03-15T08:30:13;100697.22;;;3.71;86.08
16690;BME280;8458;52.220;9.884;2023-03-15T08:32:40;100702.72;;;3.71;84.98
16690;BME280;8458;52.220;9.884;2023-03-15T08:35:09;100714.31;;;3.73;84.56
16690;BME280;8458;52.220;9.884;2023-03-15T08:37:37;100709.06;;;3.65;84.63
16690;BME280;8458;52.220;9.884;2023-03-15T08:40:04;100715.63;;;3.64;84.14
16690;BME280;8458;52.220;9.884;2023-03-15T08:42:34;100721.72;;;3.66;83.47
16690;BME280;8458;52.220;9.884;2023-03-15T08:45:00;100725.03;;;3.82;84.81
16690;BME280;8458;52.220;9.884;2023-03-15T08:47:28;100732.22;;;3.83;85.15
16690;BME280;8458;52.220;9.884;2023-03-15T08:49:54;100729.22;;;3.91;84.76
16690;BME280;8458;52.220;9.884;2023-03-15T08:52:21;100733.31;;;4.07;84.93
16690;BME280;8458;52.220;9.884;2023-03-15T08:54:47;100730.28;;;4.22;84.24
16690;BME280;8458;52.220;9.884;2023-03-15T08:57:14;100737.81;;;4.33;83.79
16690;BME280;8458;52.220;9.884;2023-03-15T08:59:41;100748.06;;;4.44;82.55
16690;BME280;8458;52.220;9.884;2023-03-15T09:02:08;100751.00;;;4.49;81.58
16690;BME280;8458;52.220;9.884;2023-03-15T09:04:36;100752.44;;;4.52;81.04
16690;BME280;8458;52.220;9.884;2023-03-15T09:07:03;100762.94;;;4.62;80.92
16690;BME280;8458;52.220;9.884;2023-03-15T09:09:30;100762.28;;;4.66;79.82
16690;BME280;8458;52.220;9.884;2023-03-15T09:11:57;100769.63;;;4.73;79.90
16690;BME280;8458;52.220;9.884;2023-03-15T09:14:24;100769.16;;;4.76;79.55
16690;BME280;8458;52.220;9.884;2023-03-15T09:16:50;100770.69;;;4.72;78.65
16690;BME280;8458;52.220;9.884;2023-03-15T09:19:17;100768.81;;;4.65;78.20
16690;BME280;8458;52.220;9.884;2023-03-15T09:21:45;100775.72;;;4.75;79.00
16690;BME280;8458;52.220;9.884;2023-03-15T09:24:11;100779.19;;;4.89;78.19
16690;BME280;8458;52.220;9.884;2023-03-15T09:26:38;100788.94;;;4.84;76.63
16690;BME280;8458;52.220;9.884;2023-03-15T09:29:05;100783.50;;;5.03;77.09
16690;BME280;8458;52.220;9.884;2023-03-15T09:31:32;100785.69;;;5.19;77.51
16690;BME280;8458;52.220;9.884;2023-03-15T09:33:59;100783.38;;;5.16;76.36
16690;BME280;8458;52.220;9.884;2023-03-15T09:36:25;100796.53;;;5.33;76.73
16690;BME280;8458;52.220;9.884;2023-03-15T09:38:53;100791.50;;;5.48;76.23
16690;BME280;8458;52.220;9.884;2023-03-15T09:41:39;100791.50;;;5.48;75.59
16690;BME280;8458;52.220;9.884;2023-03-15T09:44:13;100794.41;;;5.35;75.63
16690;BME280;8458;52.220;9.884;2023-03-15T09:46:52;100796.84;;;5.43;76.75
16690;BME280;8458;52.220;9.884;2023-03-15T09:49:31;100787.69;;;5.68;78.01
16690;BME280;8458;52.220;9.884;2023-03-15T09:52:02;100797.63;;;5.87;75.71
16690;BME280;8458;52.220;9.884;2023-03-15T09:54:38;100799.16;;;5.83;74.43
16690;BME280;8458;52.220;9.884;2023-03-15T09:57:10;100793.28;;;5.98;73.22
16690;BME280;8458;52.220;9.884;2023-03-15T09:59:41;100794.09;;;5.80;68.82
16690;BME280;8458;52.220;9.884;2023-03-15T10:02:16;100801.13;;;5.76;70.70
16690;BME280;8458;52.220;9.884;2023-03-15T10:04:44;100797.19;;;5.53;70.84
16690;BME280;8458;52.220;9.884;2023-03-15T10:07:13;100798.84;;;5.73;70.81
16690;BME280;8458;52.220;9.884;2023-03-15T10:09:43;100795.69;;;5.88;70.82
16690;BME280;8458;52.220;9.884;2023-03-15T10:12:12;100795.00;;;5.92;68.32
16690;BME280;8458;52.220;9.884;2023-03-15T10:14:52;100804.41;;;5.85;67.05
16690;BME280;8458;52.220;9.884;2023-03-15T10:17:30;100801.78;;;5.97;67.73
16690;BME280;8458;52.220;9.884;2023-03-15T10:20:02;100801.13;;;6.13;68.11
16690;BME280;8458;52.220;9.884;2023-03-15T10:22:37;100806.88;;;6.42;67.23
16690;BME280;8458;52.220;9.884;2023-03-15T10:25:13;100794.84;;;6.67;65.60
16690;BME280;8458;52.220;9.884;2023-03-15T10:27:43;100802.28;;;6.78;67.04
16690;BME280;8458;52.220;9.884;2023-03-15T10:30:16;100801.22;;;6.79;67.32
16690;BME280;8458;52.220;9.884;2023-03-15T10:32:45;100799.41;;;6.73;64.99
16690;BME280;8458;52.220;9.884;2023-03-15T10:35:16;100806.59;;;6.74;66.68
16690;BME280;8458;52.220;9.884;2023-03-15T10:37:43;100807.63;;;6.49;63.13
16690;BME280;8458;52.220;9.884;2023-03-15T10:40:13;100802.53;;;6.34;63.97
16690;BME280;8458;52.220;9.884;2023-03-15T10:42:42;100809.63;;;6.42;64.38
16690;BME280;8458;52.220;9.884;2023-03-15T10:45:19;100819.81;;;6.41;64.76
16690;BME280;8458;52.220;9.884;2023-03-15T10:47:46;100822.09;;;6.14;62.74
16690;BME280;8458;52.220;9.884;2023-03-15T10:50:17;100829.72;;;5.93;64.87
16690;BME280;8458;52.220;9.884;2023-03-15T10:52:44;100826.81;;;5.88;67.28
16690;BME280;8458;52.220;9.884;2023-03-15T10:55:14;100829.72;;;5.93;68.08
16690;BME280;8458;52.220;9.884;2023-03-15T10:57:51;100831.41;;;5.95;66.76
16690;BME280;8458;52.220;9.884;2023-03-15T11:00:26;100836.88;;;6.01;64.76
16690;BME280;8458;52.220;9.884;2023-03-15T11:03:01;100842.13;;;5.84;63.75
16690;BME280;8458;52.220;9.884;2023-03-15T11:05:29;100837.22;;;5.68;65.20
16690;BME280;8458;52.220;9.884;2023-03-15T11:07:57;100839.59;;;5.64;66.13
16690;BME280;8458;52.220;9.884;2023-03-15T11:10:27;100834.13;;;5.39;67.04
16690;BME280;8458;52.220;9.884;2023-03-15T11:13:11;100838.72;;;5.45;67.81
16690;BME280;8458;52.220;9.884;2023-03-15T11:15:38;100838.91;;;5.69;68.25
16690;BME280;8458;52.220;9.884;2023-03-15T11:18:05;100841.97;;;5.98;64.69
16690;BME280;8458;52.220;9.884;2023-03-15T11:20:38;100837.22;;;6.23;61.59
16690;BME280;8458;52.220;9.884;2023-03-15T11:23:13;100846.97;;;6.38;59.22
16690;BME280;8458;52.220;9.884;2023-03-15T11:25:41;100833.94;;;6.45;57.49
16690;BME280;8458;52.220;9.884;2023-03-15T11:28:16;100837.22;;;6.54;56.85
16690;BME280;8458;52.220;9.884;2023-03-15T11:30:44;100838.66;;;6.56;55.96
16690;BME280;8458;52.220;9.884;2023-03-15T11:33:23;100838.00;;;6.73;56.71
16690;BME280;8458;52.220;9.884;2023-03-15T11:35:51;100838.03;;;6.96;56.56
16690;BME280;8458;52.220;9.884;2023-03-15T11:38:25;100831.09;;;7.06;52.93
16690;BME280;8458;52.220;9.884;2023-03-15T11:40:56;100838.53;;;7.17;54.43
16690;BME280;8458;52.220;9.884;2023-03-15T11:43:27;100828.59;;;7.28;52.73
16690;BME280;8458;52.220;9.884;2023-03-15T11:45:57;100833.63;;;7.31;50.51
16690;BME280;8458;52.220;9.884;2023-03-15T11:48:26;100834.00;;;7.46;51.67
16690;BME280;8458;52.220;9.884;2023-03-15T11:50:55;100841.91;;;7.66;50.86
16690;BME280;8458;52.220;9.884;2023-03-15T11:53:25;100841.56;;;7.63;49.20
16690;BME280;8458;52.220;9.884;2023-03-15T11:56:21;100837.34;;;7.84;51.73
16690;BME280;8458;52.220;9.884;2023-03-15T11:59:03;100840.19;;;7.89;50.85
16690;BME280;8458;52.220;9.884;2023-03-15T12:01:33;100837.19;;;7.90;49.75
16690;BME280;8458;52.220;9.884;2023-03-15T12:07:34;100832.63;;;7.84;47.94
16690;BME280;8458;52.220;9.884;2023-03-15T12:10:32;100843.88;;;8.06;50.05
16690;BME280;8458;52.220;9.884;2023-03-15T12:13:06;100865.50;;;7.98;53.84
16690;BME280;8458;52.220;9.884;2023-03-15T12:15:44;100862.78;;;7.39;58.86
16690;BME280;8458;52.220;9.884;2023-03-15T12:18:30;100849.25;;;7.25;61.39
16690;BME280;8458;52.220;9.884;2023-03-15T12:21:13;100854.28;;;7.28;61.66
16690;BME280;8458;52.220;9.884;2023-03-15T12:23:44;100844.06;;;7.17;60.10
16690;BME280;8458;52.220;9.884;2023-03-15T12:26:24;100852.13;;;7.42;60.11
16690;BME280;8458;52.220;9.884;2023-03-15T12:29:00;100849.97;;;7.56;59.01
16690;BME280;8458;52.220;9.884;2023-03-15T12:31:42;100849.59;;;7.64;56.38
16690;BME280;8458;52.220;9.884;2023-03-15T12:34:13;100861.13;;;7.38;54.80
16690;BME280;8458;52.220;9.884;2023-03-15T12:36:44;100871.69;;;7.41;56.55
16690;BME280;8458;52.220;9.884;2023-03-15T12:39:35;100860.63;;;7.64;56.26
16690;BME280;8458;52.220;9.884;2023-03-15T12:42:03;100866.63;;;7.61;55.06
16690;BME280;8458;52.220;9.884;2023-03-15T12:44:37;100866.97;;;7.77;58.21
16690;BME280;8458;52.220;9.884;2023-03-15T12:47:05;100872.59;;;7.82;56.16
16690;BME280;8458;52.220;9.884;2023-03-15T12:49:34;100873.81;;;7.74;54.78
16690;BME280;8458;52.220;9.884;2023-03-15T12:52:03;100873.09;;;7.55;53.88
16690;BME280;8458;52.220;9.884;2023-03-15T12:54:38;100888.31;;;7.34;52.96
16690;BME280;8458;52.220;9.884;2023-03-15T12:57:09;100894.66;;;7.11;56.55
16690;BME280;8458;52.220;9.884;2023-03-15T12:59:39;100913.19;;;6.13;67.62
16690;BME280;8458;52.220;9.884;2023-03-15T13:02:23;100939.41;;;5.46;72.20
16690;BME280;8458;52.220;9.884;2023-03-15T13:04:58;100947.09;;;5.12;73.49
16690;BME280;8458;52.220;9.884;2023-03-15T13:07:34;100959.34;;;4.78;75.73
16690;BME280;8458;52.220;9.884;2023-03-15T13:10:27;100955.88;;;4.96;77.42
16690;BME280;8458;52.220;9.884;2023-03-15T13:13:01;100966.22;;;4.94;77.43
16690;BME280;8458;52.220;9.884;2023-03-15T13:15:32;100969.56;;;4.64;78.68
16690;BME280;8458;52.220;9.884;2023-03-15T13:18:04;100976.97;;;4.57;79.80
16690;BME280;8458;52.220;9.884;2023-03-15T13:20:46;100979.13;;;4.55;80.34
16690;BME280;8458;52.220;9.884;2023-03-15T13:23:19;100991.16;;;4.60;80.70